sensor_id;sensor_type;location;lat;lon;timestamp;P1;durP1;ratioP1;P2;durP2;ratioP2
23404;SDS011;11875;49.356;2.718;2023-10-08T00:02:15;5.85;;;3.85;;
23404;SDS011;11875;49.356;2.718;2023-10-08T00:04:47;5.85;;;4.15;;
23404;SDS011;11875;49.356;2.718;2023-10-08T00:07:16;7.82;;;4.32;;
23404;SDS011;11875;49.356;2.718;2023-10-08T00:09:46;10.57;;;4.80;;
23404;SDS011;11875;49.356;2.718;2023-10-08T00:12:13;7.93;;;4.00;;
23404;SDS011;11875;49.356;2.718;2023-10-08T00:14:38;6.00;;;3.83;;
23404;SDS011;11875;49.356;2.718;2023-10-08T00:17:09;6.55;;;3.90;;
23404;SDS011;11875;49.356;2.718;2023-10-08T00:19:38;6.70;;;3.90;;
23404;SDS011;11875;49.356;2.718;2023-10-08T00:22:05;4.72;;;4.00;;
23404;SDS011;11875;49.356;2.718;2023-10-08T00:24:33;7.97;;;3.80;;
23404;SDS011;11875;49.356;2.718;2023-10-08T00:26:59;12.95;;;3.78;;
23404;SDS011;11875;49.356;2.718;2023-10-08T00:29:31;6.15;;;3.85;;
23404;SDS011;11875;49.356;2.718;2023-10-08T00:31:57;6.10;;;3.58;;
23404;SDS011;11875;49.356;2.718;2023-10-08T00:34:23;8.75;;;3.70;;
23404;SDS011;11875;49.356;2.718;2023-10-08T00:36:50;7.63;;;3.13;;
23404;SDS011;11875;49.356;2.718;2023-10-08T00:39:16;4.50;;;3.30;;
23404;SDS011;11875;49.356;2.718;2023-10-08T00:41:48;6.07;;;3.72;;
23404;SDS011;11875;49.356;2.718;2023-10-08T00:44:15;6.97;;;4.32;;
23404;SDS011;11875;49.356;2.718;2023-10-08T00:46:47;7.40;;;3.30;;
23404;SDS011;11875;49.356;2.718;2023-10-08T00:49:23;4.40;;;3.50;;
23404;SDS011;11875;49.356;2.718;2023-10-08T00:51:54;8.88;;;3.92;;
23404;SDS011;11875;49.356;2.718;2023-10-08T00:54:28;8.15;;;3.67;;
23404;SDS011;11875;49.356;2.718;2023-10-08T00:56:58;6.22;;;4.00;;
23404;SDS011;11875;49.356;2.718;2023-10-08T00:59:28;5.53;;;3.58;;
23404;SDS011;11875;49.356;2.718;2023-10-08T01:01:58;6.20;;;4.03;;
23404;SDS011;11875;49.356;2.718;2023-10-08T01:04:29;9.95;;;3.83;;
23404;SDS011;11875;49.356;2.718;2023-10-08T01:06:59;5.47;;;4.00;;
23404;SDS011;11875;49.356;2.718;2023-10-08T01:09:37;5.88;;;3.95;;
23404;SDS011;11875;49.356;2.718;2023-10-08T01:12:09;6.32;;;4.05;;
23404;SDS011;11875;49.356;2.718;2023-10-08T01:15:09;7.22;;;3.97;;
23404;SDS011;11875;49.356;2.718;2023-10-08T01:17:48;7.47;;;4.10;;
23404;SDS011;11875;49.356;2.718;2023-10-08T01:20:25;5.80;;;4.00;;
23404;SDS011;11875;49.356;2.718;2023-10-08T01:22:58;7.50;;;4.20;;
23404;SDS011;11875;49.356;2.718;2023-10-08T01:25:23;6.00;;;4.03;;
23404;SDS011;11875;49.356;2.718;2023-10-08T01:27:55;8.13;;;3.75;;
23404;SDS011;11875;49.356;2.718;2023-10-08T01:30:33;6.82;;;3.25;;
23404;SDS011;11875;49.356;2.718;2023-10-08T01:33:01;6.45;;;4.07;;
23404;SDS011;11875;49.356;2.718;2023-10-08T01:35:28;7.10;;;4.30;;
23404;SDS011;11875;49.356;2.718;2023-10-08T01:37:56;6.95;;;4.03;;
23404;SDS011;11875;49.356;2.718;2023-10-08T01:40:24;7.25;;;4.45;;
23404;SDS011;11875;49.356;2.718;2023-10-08T01:42:50;9.82;;;4.53;;
23404;SDS011;11875;49.356;2.718;2023-10-08T01:45:16;8.27;;;4.80;;
23404;SDS011;11875;49.356;2.718;2023-10-08T01:47:44;7.05;;;4.10;;
23404;SDS011;11875;49.356;2.718;2023-10-08T01:50:10;10.65;;;4.70;;
23404;SDS011;11875;49.356;2.718;2023-10-08T01:52:46;7.88;;;4.82;;
23404;SDS011;11875;49.356;2.718;2023-10-08T01:55:14;7.32;;;4.53;;
23404;SDS011;11875;49.356;2.718;2023-10-08T01:57:45;8.30;;;5.00;;
23404;SDS011;11875;49.356;2.718;2023-10-08T02:00:11;8.80;;;5.15;;
23404;SDS011;11875;49.356;2.718;2023-10-08T02:02:39;8.57;;;4.82;;
23404;SDS011;11875;49.356;2.718;2023-10-08T02:05:06;8.88;;;4.90;;
23404;SDS011;11875;49.356;2.718;2023-10-08T02:07:32;8.63;;;4.72;;
23404;SDS011;11875;49.356;2.718;2023-10-08T02:09:59;12.30;;;5.03;;
23404;SDS011;11875;49.356;2.718;2023-10-08T02:12:24;8.98;;;4.68;;
23404;SDS011;11875;49.356;2.718;2023-10-08T02:14:50;6.97;;;4.22;;
23404;SDS011;11875;49.356;2.718;2023-10-08T02:17:16;6.57;;;4.68;;
23404;SDS011;11875;49.356;2.718;2023-10-08T02:19:42;6.65;;;4.18;;
23404;SDS011;11875;49.356;2.718;2023-10-08T02:22:08;8.32;;;4.63;;
23404;SDS011;11875;49.356;2.718;2023-10-08T02:24:37;7.65;;;4.60;;
23404;SDS011;11875;49.356;2.718;2023-10-08T02:27:03;5.95;;;3.90;;
23404;SDS011;11875;49.356;2.718;2023-10-08T02:29:30;7.97;;;4.80;;
23404;SDS011;11875;49.356;2.718;2023-10-08T02:31:56;8.80;;;4.50;;
23404;SDS011;11875;49.356;2.718;2023-10-08T02:34:22;7.20;;;4.80;;
23404;SDS011;11875;49.356;2.718;2023-10-08T02:36:48;5.93;;;4.15;;
23404;SDS011;11875;49.356;2.718;2023-10-08T02:39:13;10.50;;;4.50;;
23404;SDS011;11875;49.356;2.718;2023-10-08T02:41:47;8.10;;;4.53;;
23404;SDS011;11875;49.356;2.718;2023-10-08T02:44:14;8.07;;;4.53;;
23404;SDS011;11875;49.356;2.718;2023-10-08T02:46:43;10.15;;;4.55;;
23404;SDS011;11875;49.356;2.718;2023-10-08T02:49:12;6.47;;;4.45;;
23404;SDS011;11875;49.356;2.718;2023-10-08T02:51:42;10.45;;;4.63;;
23404;SDS011;11875;49.356;2.718;2023-10-08T02:54:09;5.78;;;4.35;;
23404;SDS011;11875;49.356;2.718;2023-10-08T02:56:46;8.75;;;4.57;;
23404;SDS011;11875;49.356;2.718;2023-10-08T02:59:16;6.82;;;4.82;;
23404;SDS011;11875;49.356;2.718;2023-10-08T03:01:41;5.85;;;4.53;;
23404;SDS011;11875;49.356;2.718;2023-10-08T03:04:10;12.85;;;4.93;;
23404;SDS011;11875;49.356;2.718;2023-10-08T03:06:45;7.68;;;5.10;;
23404;SDS011;11875;49.356;2.718;2023-10-08T03:09:15;10.07;;;5.40;;
23404;SDS011;11875;49.356;2.718;2023-10-08T03:11:46;8.63;;;5.13;;
23404;SDS011;11875;49.356;2.718;2023-10-08T03:14:13;10.38;;;4.88;;
23404;SDS011;11875;49.356;2.718;2023-10-08T03:16:46;9.93;;;4.75;;
23404;SDS011;11875;49.356;2.718;2023-10-08T03:19:16;7.57;;;5.18;;
23404;SDS011;11875;49.356;2.718;2023-10-08T03:21:45;8.68;;;5.30;;
23404;SDS011;11875;49.356;2.718;2023-10-08T03:24:16;8.55;;;5.25;;
23404;SDS011;11875;49.356;2.718;2023-10-08T03:27:14;6.78;;;4.80;;
23404;SDS011;11875;49.356;2.718;2023-10-08T03:29:46;7.28;;;4.40;;
23404;SDS011;11875;49.356;2.718;2023-10-08T03:32:12;10.02;;;5.35;;
23404;SDS011;11875;49.356;2.718;2023-10-08T03:34:48;7.22;;;4.88;;
23404;SDS011;11875;49.356;2.718;2023-10-08T03:37:15;8.07;;;4.93;;
23404;SDS011;11875;49.356;2.718;2023-10-08T03:39:48;8.60;;;5.63;;
23404;SDS011;11875;49.356;2.718;2023-10-08T03:42:21;8.52;;;6.07;;
23404;SDS011;11875;49.356;2.718;2023-10-08T03:44:51;10.38;;;7.47;;
23404;SDS011;11875;49.356;2.718;2023-10-08T03:47:18;12.23;;;7.60;;
23404;SDS011;11875;49.356;2.718;2023-10-08T03:49:47;11.57;;;6.25;;
23404;SDS011;11875;49.356;2.718;2023-10-08T03:52:16;10.10;;;6.43;;
23404;SDS011;11875;49.356;2.718;2023-10-08T03:54:48;18.50;;;6.60;;
23404;SDS011;11875;49.356;2.718;2023-10-08T03:57:20;10.05;;;6.35;;
23404;SDS011;11875;49.356;2.718;2023-10-08T03:59:54;10.65;;;6.07;;
23404;SDS011;11875;49.356;2.718;2023-10-08T04:02:23;10.02;;;5.53;;
23404;SDS011;11875;49.356;2.718;2023-10-08T04:05:05;11.38;;;5.72;;
23404;SDS011;11875;49.356;2.718;2023-10-08T04:07:43;11.73;;;6.28;;
23404;SDS011;11875;49.356;2.718;2023-10-08T04:10:30;8.27;;;5.72;;
23404;SDS011;11875;49.356;2.718;2023-10-08T04:13:06;8.25;;;5.32;;
23404;SDS011;11875;49.356;2.718;2023-10-08T04:15:35;9.80;;;5.45;;
23404;SDS011;11875;49.356;2.718;2023-10-08T04:18:11;8.13;;;5.25;;
23404;SDS011;11875;49.356;2.718;2023-10-08T04:20:38;8.50;;;5.85;;
23404;SDS011;11875;49.356;2.718;2023-10-08T04:23:04;9.15;;;5.38;;
23404;SDS011;11875;49.356;2.718;2023-10-08T04:25:38;11.30;;;5.63;;
23404;SDS011;11875;49.356;2.718;2023-10-08T04:28:04;13.23;;;6.47;;
23404;SDS011;11875;49.356;2.718;2023-10-08T04:30:34;9.80;;;6.13;;
23404;SDS011;11875;49.356;2.718;2023-10-08T04:35:36;8.57;;;5.57;;
23404;SDS011;11875;49.356;2.718;2023-10-08T04:38:09;11.80;;;6.25;;
23404;SDS011;11875;49.356;2.718;2023-10-08T04:40:36;12.10;;;5.50;;
23404;SDS011;11875;49.356;2.718;2023-10-08T04:43:12;8.23;;;6.05;;
23404;SDS011;11875;49.356;2.718;2023-10-08T04:45:40;7.87;;;5.80;;
23404;SDS011;11875;49.356;2.718;2023-10-08T04:48:06;12.73;;;6.00;;
23404;SDS011;11875;49.356;2.718;2023-10-08T04:50:38;15.50;;;5.82;;
23404;SDS011;11875;49.356;2.718;2023-10-08T04:53:03;9.98;;;5.43;;
23404;SDS011;11875;49.356;2.718;2023-10-08T04:55:33;10.05;;;6.05;;
23404;SDS011;11875;49.356;2.718;2023-10-08T04:57:59;9.18;;;5.22;;
23404;SDS011;11875;49.356;2.718;2023-10-08T05:00:29;6.85;;;5.07;;
23404;SDS011;11875;49.356;2.718;2023-10-08T05:03:18;11.95;;;5.13;;
23404;SDS011;11875;49.356;2.718;2023-10-08T05:05:47;8.63;;;5.47;;
23404;SDS011;11875;49.356;2.718;2023-10-08T05:08:31;10.40;;;5.07;;
23404;SDS011;11875;49.356;2.718;2023-10-08T05:11:22;9.07;;;5.93;;
23404;SDS011;11875;49.356;2.718;2023-10-08T05:14:11;8.88;;;5.70;;
23404;SDS011;11875;49.356;2.718;2023-10-08T05:16:42;10.70;;;5.50;;
23404;SDS011;11875;49.356;2.718;2023-10-08T05:19:25;8.45;;;5.82;;
23404;SDS011;11875;49.356;2.718;2023-10-08T05:22:11;15.13;;;5.47;;
23404;SDS011;11875;49.356;2.718;2023-10-08T05:25:03;8.75;;;5.32;;
23404;SDS011;11875;49.356;2.718;2023-10-08T05:27:42;10.05;;;5.43;;
23404;SDS011;11875;49.356;2.718;2023-10-08T05:30:18;11.52;;;6.10;;
23404;SDS011;11875;49.356;2.718;2023-10-08T05:32:57;8.20;;;5.43;;
23404;SDS011;11875;49.356;2.718;2023-10-08T05:35:39;8.43;;;5.30;;
23404;SDS011;11875;49.356;2.718;2023-10-08T05:38:09;10.32;;;5.50;;
23404;SDS011;11875;49.356;2.718;2023-10-08T05:40:42;9.18;;;5.13;;
23404;SDS011;11875;49.356;2.718;2023-10-08T05:43:23;11.18;;;6.47;;
23404;SDS011;11875;49.356;2.718;2023-10-08T05:46:13;10.70;;;6.70;;
23404;SDS011;11875;49.356;2.718;2023-10-08T05:51:29;14.35;;;7.65;;
23404;SDS011;11875;49.356;2.718;2023-10-08T05:54:19;12.20;;;6.97;;
23404;SDS011;11875;49.356;2.718;2023-10-08T05:57:00;13.80;;;7.80;;
23404;SDS011;11875;49.356;2.718;2023-10-08T06:02:22;17.37;;;7.83;;
23404;SDS011;11875;49.356;2.718;2023-10-08T06:05:14;14.40;;;7.47;;
23404;SDS011;11875;49.356;2.718;2023-10-08T06:08:01;14.43;;;7.83;;
23404;SDS011;11875;49.356;2.718;2023-10-08T06:10:37;16.10;;;7.70;;
23404;SDS011;11875;49.356;2.718;2023-10-08T06:13:03;15.27;;;7.67;;
23404;SDS011;11875;49.356;2.718;2023-10-08T06:15:53;13.23;;;6.70;;
23404;SDS011;11875;49.356;2.718;2023-10-08T06:20:51;11.97;;;6.63;;
23404;SDS011;11875;49.356;2.718;2023-10-08T06:23:19;11.20;;;6.37;;
23404;SDS011;11875;49.356;2.718;2023-10-08T06:25:48;12.20;;;6.20;;
23404;SDS011;11875;49.356;2.718;2023-10-08T06:28:23;10.93;;;6.00;;
23404;SDS011;11875;49.356;2.718;2023-10-08T06:30:51;12.77;;;6.80;;
23404;SDS011;11875;49.356;2.718;2023-10-08T06:33:22;13.80;;;6.83;;
23404;SDS011;11875;49.356;2.718;2023-10-08T06:35:50;15.67;;;7.47;;
23404;SDS011;11875;49.356;2.718;2023-10-08T06:38:44;13.15;;;6.97;;
23404;SDS011;11875;49.356;2.718;2023-10-08T06:41:14;13.23;;;7.25;;
23404;SDS011;11875;49.356;2.718;2023-10-08T06:43:43;12.73;;;7.85;;
23404;SDS011;11875;49.356;2.718;2023-10-08T06:46:27;17.83;;;9.90;;
23404;SDS011;11875;49.356;2.718;2023-10-08T06:48:55;13.82;;;7.72;;
23404;SDS011;11875;49.356;2.718;2023-10-08T06:51:22;12.48;;;7.90;;
23404;SDS011;11875;49.356;2.718;2023-10-08T06:53:50;12.82;;;7.45;;
23404;SDS011;11875;49.356;2.718;2023-10-08T06:56:18;15.90;;;8.68;;
23404;SDS011;11875;49.356;2.718;2023-10-08T06:58:45;15.90;;;9.27;;
23404;SDS011;11875;49.356;2.718;2023-10-08T07:01:17;19.13;;;8.82;;
23404;SDS011;11875;49.356;2.718;2023-10-08T07:03:46;15.70;;;8.85;;
23404;SDS011;11875;49.356;2.718;2023-10-08T07:06:14;11.88;;;7.47;;
23404;SDS011;11875;49.356;2.718;2023-10-08T07:08:50;13.25;;;7.40;;
23404;SDS011;11875;49.356;2.718;2023-10-08T07:11:20;16.52;;;7.63;;
23404;SDS011;11875;49.356;2.718;2023-10-08T07:13:47;16.55;;;6.75;;
23404;SDS011;11875;49.356;2.718;2023-10-08T07:16:13;12.95;;;8.57;;
23404;SDS011;11875;49.356;2.718;2023-10-08T07:18:42;10.75;;;6.40;;
23404;SDS011;11875;49.356;2.718;2023-10-08T07:21:18;12.52;;;6.68;;
23404;SDS011;11875;49.356;2.718;2023-10-08T07:23:49;13.40;;;7.22;;
23404;SDS011;11875;49.356;2.718;2023-10-08T07:26:29;13.50;;;7.18;;
23404;SDS011;11875;49.356;2.718;2023-10-08T07:29:01;15.55;;;7.53;;
23404;SDS011;11875;49.356;2.718;2023-10-08T07:31:37;14.20;;;7.88;;
23404;SDS011;11875;49.356;2.718;2023-10-08T07:34:06;14.13;;;9.48;;
23404;SDS011;11875;49.356;2.718;2023-10-08T07:36:44;12.25;;;7.90;;
23404;SDS011;11875;49.356;2.718;2023-10-08T07:39:15;16.52;;;10.00;;
23404;SDS011;11875;49.356;2.718;2023-10-08T07:41:55;16.20;;;7.70;;
23404;SDS011;11875;49.356;2.718;2023-10-08T07:44:21;10.68;;;6.88;;
23404;SDS011;11875;49.356;2.718;2023-10-08T07:46:51;12.68;;;7.13;;
23404;SDS011;11875;49.356;2.718;2023-10-08T07:49:19;11.45;;;6.78;;
23404;SDS011;11875;49.356;2.718;2023-10-08T07:51:45;12.60;;;7.10;;
23404;SDS011;11875;49.356;2.718;2023-10-08T07:54:16;14.27;;;7.15;;
23404;SDS011;11875;49.356;2.718;2023-10-08T07:56:54;11.85;;;6.38;;
23404;SDS011;11875;49.356;2.718;2023-10-08T07:59:33;10.48;;;6.72;;
23404;SDS011;11875;49.356;2.718;2023-10-08T08:02:12;10.18;;;6.72;;
23404;SDS011;11875;49.356;2.718;2023-10-08T08:04:39;10.27;;;6.57;;
23404;SDS011;11875;49.356;2.718;2023-10-08T08:07:09;10.10;;;6.75;;
23404;SDS011;11875;49.356;2.718;2023-10-08T08:09:44;13.15;;;6.40;;
23404;SDS011;11875;49.356;2.718;2023-10-08T08:12:17;10.75;;;6.22;;
23404;SDS011;11875;49.356;2.718;2023-10-08T08:14:44;15.50;;;7.10;;
23404;SDS011;11875;49.356;2.718;2023-10-08T08:17:10;13.90;;;7.15;;
23404;SDS011;11875;49.356;2.718;2023-10-08T08:19:39;12.55;;;7.25;;
23404;SDS011;11875;49.356;2.718;2023-10-08T08:22:21;9.70;;;7.30;;
23404;SDS011;11875;49.356;2.718;2023-10-08T08:24:50;11.52;;;6.65;;
23404;SDS011;11875;49.356;2.718;2023-10-08T08:27:40;9.55;;;6.85;;
23404;SDS011;11875;49.356;2.718;2023-10-08T08:30:11;10.05;;;6.22;;
23404;SDS011;11875;49.356;2.718;2023-10-08T08:32:41;11.77;;;6.10;;
23404;SDS011;11875;49.356;2.718;2023-10-08T08:35:12;11.65;;;9.40;;
23404;SDS011;11875;49.356;2.718;2023-10-08T08:37:41;11.32;;;6.55;;
23404;SDS011;11875;49.356;2.718;2023-10-08T08:40:08;10.30;;;7.50;;
23404;SDS011;11875;49.356;2.718;2023-10-08T08:42:34;11.75;;;6.88;;
23404;SDS011;11875;49.356;2.718;2023-10-08T08:45:02;13.93;;;9.13;;
23404;SDS011;11875;49.356;2.718;2023-10-08T08:47:33;10.60;;;6.82;;
23404;SDS011;11875;49.356;2.718;2023-10-08T08:50:02;13.00;;;7.13;;
23404;SDS011;11875;49.356;2.718;2023-10-08T08:52:34;12.45;;;7.38;;
23404;SDS011;11875;49.356;2.718;2023-10-08T08:55:07;12.98;;;8.05;;
23404;SDS011;11875;49.356;2.718;2023-10-08T08:57:41;10.20;;;6.75;;
23404;SDS011;11875;49.356;2.718;2023-10-08T09:00:08;10.10;;;6.63;;
23404;SDS011;11875;49.356;2.718;2023-10-08T09:02:41;11.93;;;7.40;;
23404;SDS011;11875;49.356;2.718;2023-10-08T09:05:09;16.65;;;9.05;;
23404;SDS011;11875;49.356;2.718;2023-10-08T09:10:28;12.50;;;7.55;;
23404;SDS011;11875;49.356;2.718;2023-10-08T09:12:55;11.70;;;7.20;;
23404;SDS011;11875;49.356;2.718;2023-10-08T09:15:24;14.05;;;8.00;;
23404;SDS011;11875;49.356;2.718;2023-10-08T09:17:52;12.68;;;6.85;;
23404;SDS011;11875;49.356;2.718;2023-10-08T09:20:19;11.02;;;6.55;;
23404;SDS011;11875;49.356;2.718;2023-10-08T09:22:45;14.30;;;7.93;;
23404;SDS011;11875;49.356;2.718;2023-10-08T09:25:17;9.90;;;7.40;;
23404;SDS011;11875;49.356;2.718;2023-10-08T09:27:50;12.65;;;7.13;;
23404;SDS011;11875;49.356;2.718;2023-10-08T09:30:20;10.43;;;6.72;;
23404;SDS011;11875;49.356;2.718;2023-10-08T09:32:47;11.25;;;7.10;;
23404;SDS011;11875;49.356;2.718;2023-10-08T09:35:14;12.68;;;7.28;;
23404;SDS011;11875;49.356;2.718;2023-10-08T09:37:40;10.48;;;6.00;;
23404;SDS011;11875;49.356;2.718;2023-10-08T09:40:08;14.68;;;7.22;;
23404;SDS011;11875;49.356;2.718;2023-10-08T09:42:37;12.57;;;6.97;;
23404;SDS011;11875;49.356;2.718;2023-10-08T09:45:04;13.43;;;7.03;;
23404;SDS011;11875;49.356;2.718;2023-10-08T09:47:34;15.73;;;7.15;;
23404;SDS011;11875;49.356;2.718;2023-10-08T09:50:03;12.02;;;9.35;;
23404;SDS011;11875;49.356;2.718;2023-10-08T09:53:18;11.65;;;6.97;;
23404;SDS011;11875;49.356;2.718;2023-10-08T09:55:36;10.52;;;6.82;;
23404;SDS011;11875;49.356;2.718;2023-10-08T09:58:06;9.38;;;6.65;;
23404;SDS011;11875;49.356;2.718;2023-10-08T10:00:33;9.07;;;6.18;;
23404;SDS011;11875;49.356;2.718;2023-10-08T10:02:59;12.68;;;6.57;;
23404;SDS011;11875;49.356;2.718;2023-10-08T10:05:32;12.57;;;6.63;;
23404;SDS011;11875;49.356;2.718;2023-10-08T10:08:04;15.32;;;6.90;;
23404;SDS011;11875;49.356;2.718;2023-10-08T10:10:33;11.38;;;6.10;;
23404;SDS011;11875;49.356;2.718;2023-10-08T10:13:02;10.70;;;5.78;;
23404;SDS011;11875;49.356;2.718;2023-10-08T10:15:37;10.40;;;6.38;;
23404;SDS011;11875;49.356;2.718;2023-10-08T10:18:13;17.17;;;6.90;;
23404;SDS011;11875;49.356;2.718;2023-10-08T10:20:41;9.02;;;5.70;;
23404;SDS011;11875;49.356;2.718;2023-10-08T10:23:41;7.47;;;5.35;;
23404;SDS011;11875;49.356;2.718;2023-10-08T10:26:30;10.13;;;5.85;;
23404;SDS011;11875;49.356;2.718;2023-10-08T10:31:43;9.90;;;5.90;;
23404;SDS011;11875;49.356;2.718;2023-10-08T10:34:12;13.32;;;5.63;;
23404;SDS011;11875;49.356;2.718;2023-10-08T10:36:43;10.35;;;6.50;;
23404;SDS011;11875;49.356;2.718;2023-10-08T10:39:13;10.32;;;5.80;;
23404;SDS011;11875;49.356;2.718;2023-10-08T10:41:46;10.55;;;6.28;;
23404;SDS011;11875;49.356;2.718;2023-10-08T10:44:13;9.45;;;6.30;;
23404;SDS011;11875;49.356;2.718;2023-10-08T10:46:42;10.45;;;6.15;;
23404;SDS011;11875;49.356;2.718;2023-10-08T10:49:15;8.80;;;6.28;;
23404;SDS011;11875;49.356;2.718;2023-10-08T10:51:55;12.73;;;6.60;;
23404;SDS011;11875;49.356;2.718;2023-10-08T10:54:23;13.02;;;6.20;;
23404;SDS011;11875;49.356;2.718;2023-10-08T10:56:50;8.63;;;5.28;;
23404;SDS011;11875;49.356;2.718;2023-10-08T10:59:29;9.77;;;5.72;;
23404;SDS011;11875;49.356;2.718;2023-10-08T11:02:02;10.05;;;6.07;;
23404;SDS011;11875;49.356;2.718;2023-10-08T11:04:34;7.88;;;5.32;;
23404;SDS011;11875;49.356;2.718;2023-10-08T11:07:12;12.68;;;5.82;;
23404;SDS011;11875;49.356;2.718;2023-10-08T11:09:43;7.95;;;5.65;;
23404;SDS011;11875;49.356;2.718;2023-10-08T11:12:10;8.45;;;6.18;;
23404;SDS011;11875;49.356;2.718;2023-10-08T11:14:41;9.43;;;5.38;;
23404;SDS011;11875;49.356;2.718;2023-10-08T11:17:11;12.98;;;5.65;;
23404;SDS011;11875;49.356;2.718;2023-10-08T11:19:42;7.32;;;5.25;;
23404;SDS011;11875;49.356;2.718;2023-10-08T11:22:11;11.50;;;5.15;;
23404;SDS011;11875;49.356;2.718;2023-10-08T11:24:41;8.73;;;5.70;;
23404;SDS011;11875;49.356;2.718;2023-10-08T11:27:09;6.78;;;4.95;;
23404;SDS011;11875;49.356;2.718;2023-10-08T11:29:45;8.90;;;4.90;;
23404;SDS011;11875;49.356;2.718;2023-10-08T11:32:22;9.43;;;5.20;;
23404;SDS011;11875;49.356;2.718;2023-10-08T11:34:57;7.43;;;5.00;;
23404;SDS011;11875;49.356;2.718;2023-10-08T11:37:28;8.40;;;4.90;;
23404;SDS011;11875;49.356;2.718;2023-10-08T11:39:55;8.77;;;4.43;;
23404;SDS011;11875;49.356;2.718;2023-10-08T11:42:24;7.65;;;4.72;;
23404;SDS011;11875;49.356;2.718;2023-10-08T11:45:11;8.93;;;5.05;;
23404;SDS011;11875;49.356;2.718;2023-10-08T11:47:45;9.73;;;5.07;;
23404;SDS011;11875;49.356;2.718;2023-10-08T11:50:14;6.93;;;4.70;;
23404;SDS011;11875;49.356;2.718;2023-10-08T11:52:44;17.05;;;5.60;;
23404;SDS011;11875;49.356;2.718;2023-10-08T11:55:11;11.43;;;5.50;;
23404;SDS011;11875;49.356;2.718;2023-10-08T11:57:44;11.93;;;4.68;;
23404;SDS011;11875;49.356;2.718;2023-10-08T12:00:14;6.63;;;4.65;;
23404;SDS011;11875;49.356;2.718;2023-10-08T12:02:51;11.93;;;4.88;;
23404;SDS011;11875;49.356;2.718;2023-10-08T12:05:19;8.15;;;4.53;;
23404;SDS011;11875;49.356;2.718;2023-10-08T12:07:50;9.38;;;4.20;;
23404;SDS011;11875;49.356;2.718;2023-10-08T12:10:20;9.40;;;4.30;;
23404;SDS011;11875;49.356;2.718;2023-10-08T12:12:50;7.03;;;3.95;;
23404;SDS011;11875;49.356;2.718;2023-10-08T12:15:17;10.05;;;4.47;;
23404;SDS011;11875;49.356;2.718;2023-10-08T12:17:47;9.48;;;4.32;;
23404;SDS011;11875;49.356;2.718;2023-10-08T12:20:37;6.20;;;3.58;;
23404;SDS011;11875;49.356;2.718;2023-10-08T12:23:04;7.20;;;4.60;;
23404;SDS011;11875;49.356;2.718;2023-10-08T12:25:31;5.50;;;3.85;;
23404;SDS011;11875;49.356;2.718;2023-10-08T12:28:03;6.55;;;3.95;;
23404;SDS011;11875;49.356;2.718;2023-10-08T12:30:31;8.10;;;3.80;;
23404;SDS011;11875;49.356;2.718;2023-10-08T12:33:06;9.00;;;3.65;;
23404;SDS011;11875;49.356;2.718;2023-10-08T12:35:32;10.02;;;4.22;;
23404;SDS011;11875;49.356;2.718;2023-10-08T12:37:58;6.65;;;3.80;;
23404;SDS011;11875;49.356;2.718;2023-10-08T12:40:23;7.93;;;4.03;;
23404;SDS011;11875;49.356;2.718;2023-10-08T12:42:52;6.70;;;4.25;;
23404;SDS011;11875;49.356;2.718;2023-10-08T12:45:19;7.82;;;4.05;;
23404;SDS011;11875;49.356;2.718;2023-10-08T12:47:51;7.57;;;4.35;;
23404;SDS011;11875;49.356;2.718;2023-10-08T12:50:17;8.40;;;4.18;;
23404;SDS011;11875;49.356;2.718;2023-10-08T12:53:10;6.75;;;4.05;;
23404;SDS011;11875;49.356;2.718;2023-10-08T12:55:39;6.95;;;4.35;;
23404;SDS011;11875;49.356;2.718;2023-10-08T12:58:06;7.78;;;4.05;;
23404;SDS011;11875;49.356;2.718;2023-10-08T13:00:34;5.72;;;3.95;;
23404;SDS011;11875;49.356;2.718;2023-10-08T13:03:03;6.40;;;4.05;;
23404;SDS011;11875;49.356;2.718;2023-10-08T13:05:30;7.35;;;4.22;;
23404;SDS011;11875;49.356;2.718;2023-10-08T13:07:58;6.35;;;3.90;;
23404;SDS011;11875;49.356;2.718;2023-10-08T13:10:28;6.65;;;4.25;;
23404;SDS011;11875;49.356;2.718;2023-10-08T13:12:56;7.72;;;3.83;;
23404;SDS011;11875;49.356;2.718;2023-10-08T13:15:22;9.98;;;4.22;;
23404;SDS011;11875;49.356;2.718;2023-10-08T13:17:51;6.18;;;4.00;;
23404;SDS011;11875;49.356;2.718;2023-10-08T13:20:17;6.18;;;3.80;;
23404;SDS011;11875;49.356;2.718;2023-10-08T13:22:43;9.70;;;4.60;;
23404;SDS011;11875;49.356;2.718;2023-10-08T13:25:09;7.10;;;4.20;;
23404;SDS011;11875;49.356;2.718;2023-10-08T13:27:36;6.82;;;4.22;;
23404;SDS011;11875;49.356;2.718;2023-10-08T13:30:05;6.15;;;4.22;;
23404;SDS011;11875;49.356;2.718;2023-10-08T13:32:33;9.63;;;4.25;;
23404;SDS011;11875;49.356;2.718;2023-10-08T13:35:03;6.00;;;3.78;;
23404;SDS011;11875;49.356;2.718;2023-10-08T13:37:31;6.47;;;3.92;;
23404;SDS011;11875;49.356;2.718;2023-10-08T13:39:58;6.88;;;4.15;;
23404;SDS011;11875;49.356;2.718;2023-10-08T13:42:24;5.05;;;3.65;;
23404;SDS011;11875;49.356;2.718;2023-10-08T13:44:52;5.80;;;3.67;;
23404;SDS011;11875;49.356;2.718;2023-10-08T13:47:18;8.13;;;3.95;;
23404;SDS011;11875;49.356;2.718;2023-10-08T13:49:47;5.85;;;3.25;;
23404;SDS011;11875;49.356;2.718;2023-10-08T13:52:15;7.72;;;3.88;;
23404;SDS011;11875;49.356;2.718;2023-10-08T13:54:42;10.32;;;3.55;;
23404;SDS011;11875;49.356;2.718;2023-10-08T13:57:12;5.75;;;2.97;;
23404;SDS011;11875;49.356;2.718;2023-10-08T13:59:40;5.80;;;3.35;;
23404;SDS011;11875;49.356;2.718;2023-10-08T14:02:07;6.88;;;3.13;;
23404;SDS011;11875;49.356;2.718;2023-10-08T14:04:39;6.35;;;3.80;;
23404;SDS011;11875;49.356;2.718;2023-10-08T14:07:08;6.45;;;3.20;;
23404;SDS011;11875;49.356;2.718;2023-10-08T14:09:36;9.73;;;3.88;;
23404;SDS011;11875;49.356;2.718;2023-10-08T14:12:04;6.18;;;3.53;;
23404;SDS011;11875;49.356;2.718;2023-10-08T14:14:31;6.22;;;3.15;;
23404;SDS011;11875;49.356;2.718;2023-10-08T14:16:59;4.15;;;3.22;;
23404;SDS011;11875;49.356;2.718;2023-10-08T14:19:30;7.95;;;3.75;;
23404;SDS011;11875;49.356;2.718;2023-10-08T14:22:16;6.43;;;3.60;;
23404;SDS011;11875;49.356;2.718;2023-10-08T14:24:46;5.85;;;3.20;;
23404;SDS011;11875;49.356;2.718;2023-10-08T14:27:23;7.25;;;3.50;;
23404;SDS011;11875;49.356;2.718;2023-10-08T14:29:57;6.68;;;3.30;;
23404;SDS011;11875;49.356;2.718;2023-10-08T14:32:26;6.60;;;3.75;;
23404;SDS011;11875;49.356;2.718;2023-10-08T14:34:52;6.40;;;3.50;;
23404;SDS011;11875;49.356;2.718;2023-10-08T14:37:37;8.50;;;3.40;;
23404;SDS011;11875;49.356;2.718;2023-10-08T14:40:21;10.73;;;3.20;;
23404;SDS011;11875;49.356;2.718;2023-10-08T14:43:05;6.35;;;3.55;;
23404;SDS011;11875;49.356;2.718;2023-10-08T14:45:33;8.73;;;3.55;;
23404;SDS011;11875;49.356;2.718;2023-10-08T14:48:00;8.68;;;3.25;;
23404;SDS011;11875;49.356;2.718;2023-10-08T14:50:27;4.97;;;3.50;;
23404;SDS011;11875;49.356;2.718;2023-10-08T14:52:56;7.57;;;3.35;;
23404;SDS011;11875;49.356;2.718;2023-10-08T14:55:23;14.85;;;4.07;;
23404;SDS011;11875;49.356;2.718;2023-10-08T14:57:49;13.13;;;3.45;;
23404;SDS011;11875;49.356;2.718;2023-10-08T15:00:18;6.55;;;3.28;;
23404;SDS011;11875;49.356;2.718;2023-10-08T15:02:54;5.40;;;3.55;;
23404;SDS011;11875;49.356;2.718;2023-10-08T15:05:20;5.07;;;3.03;;
23404;SDS011;11875;49.356;2.718;2023-10-08T15:07:48;10.73;;;3.40;;
23404;SDS011;11875;49.356;2.718;2023-10-08T15:10:17;5.55;;;2.90;;
23404;SDS011;11875;49.356;2.718;2023-10-08T15:12:43;8.05;;;3.08;;
23404;SDS011;11875;49.356;2.718;2023-10-08T15:15:09;5.43;;;3.22;;
23404;SDS011;11875;49.356;2.718;2023-10-08T15:17:41;6.88;;;3.03;;
23404;SDS011;11875;49.356;2.718;2023-10-08T15:20:13;6.43;;;3.10;;
23404;SDS011;11875;49.356;2.718;2023-10-08T15:22:41;4.78;;;3.95;;